Time;durP1;ratioP1;P1;durP2;ratioP2;P2;SDS_P1;SDS_P2;PMS_P1;PMS_P2;Temp;Humidity;BMP_temperature;BMP_pressure;BME280_temperature;BME280_humidity;BME280_pressure;Samples;Min_cycle;Max_cycle;Signal;HPM_P1;HPM_P2
2022/09/04 00:00:07;;;;;;;5.50;5.10;;;20.60;99.90;;;;;;6220927;28;20229;-68
2022/09/04 00:03:25;;;;;;;6.03;5.53;;;20.60;99.90;;;;;;6250302;28;20227;-68
2022/09/04 00:06:37;;;;;;;7.20;6.60;;;20.50;99.90;;;;;;6244050;28;20226;-69
2022/09/04 00:09:50;;;;;;;6.47;5.87;;;20.40;99.90;;;;;;6233254;28;20233;-69
2022/09/04 00:12:57;;;;;;;5.20;4.80;;;20.30;99.90;;;;;;6250956;28;20232;-68
2022/09/04 00:16:07;;;;;;;6.73;5.43;;;20.30;99.90;;;;;;6238625;28;20237;-68
2022/09/04 00:19:19;;;;;;;5.43;5.03;;;20.30;99.90;;;;;;6237554;28;20339;-68
2022/09/04 00:22:30;;;;;;;5.90;5.50;;;20.30;99.90;;;;;;6250951;28;20244;-69
2022/09/04 00:25:41;;;;;;;5.10;4.80;;;20.40;99.90;;;;;;6234387;28;20225;-68
2022/09/04 00:28:48;;;;;;;5.63;5.23;;;20.30;99.90;;;;;;6242031;28;20686;-68
2022/09/04 00:31:55;;;;;;;5.60;5.20;;;20.30;99.90;;;;;;6247084;28;20300;-68
2022/09/04 00:35:05;;;;;;;5.67;5.17;;;20.30;99.90;;;;;;6233808;28;20240;-67
2022/09/04 00:38:14;;;;;;;5.63;5.13;;;20.30;99.90;;;;;;6245463;28;20597;-67
2022/09/04 00:41:29;;;;;;;5.23;4.93;;;20.30;99.90;;;;;;6251291;28;20228;-68
2022/09/04 00:44:44;;;;;;;5.37;4.97;;;20.20;99.90;;;;;;6229698;28;20244;-68
2022/09/04 00:48:12;;;;;;;5.53;5.13;;;20.30;99.90;;;;;;6250788;28;20232;-68
2022/09/04 00:51:23;;;;;;;5.23;4.83;;;20.30;99.90;;;;;;6229525;28;20247;-68
2022/09/04 00:54:47;;;;;;;5.40;5.00;;;20.20;99.90;;;;;;6251245;28;20231;-67
2022/09/04 00:58:12;;;;;;;6.17;5.13;;;20.10;99.90;;;;;;6243304;28;20823;-67
2022/09/04 01:01:21;;;;;;;5.37;4.67;;;20.10;99.90;;;;;;6238036;28;20239;-67
2022/09/04 01:04:36;;;;;;;4.70;4.40;;;20.10;99.90;;;;;;6250534;28;20232;-68
2022/09/04 01:07:52;;;;;;;7.00;5.20;;;20.00;99.90;;;;;;6236707;28;20233;-69
2022/09/04 01:11:07;;;;;;;5.33;4.93;;;20.00;99.90;;;;;;6242842;28;20229;-69
2022/09/04 01:14:20;;;;;;;4.90;4.40;;;19.90;99.90;;;;;;6250904;28;20244;-68
2022/09/04 01:17:31;;;;;;;5.20;4.83;;;19.90;99.90;;;;;;6230020;28;20237;-68
2022/09/04 01:21:15;;;;;;;3.97;3.67;;;19.80;99.90;;;;;;6242487;28;20534;-68
2022/09/04 01:24:29;;;;;;;5.77;5.27;;;19.80;99.90;;;;;;6171914;28;20246;-69
2022/09/04 01:27:44;;;;;;;4.90;4.50;;;19.60;99.90;;;;;;6231241;28;20239;-68
2022/09/04 01:30:54;;;;;;;4.83;4.47;;;19.60;99.90;;;;;;6250805;28;20240;-68
2022/09/04 01:34:09;;;;;;;5.20;4.80;;;19.50;99.90;;;;;;6250424;28;20578;-68
2022/09/04 01:37:27;;;;;;;5.70;4.67;;;19.60;99.90;;;;;;6250275;28;20259;-68
2022/09/04 01:40:37;;;;;;;4.83;4.43;;;19.50;99.90;;;;;;6250243;28;20239;-68
2022/09/04 01:43:42;;;;;;;4.80;4.40;;;19.50;99.90;;;;;;6250027;28;20232;-68
2022/09/04 01:46:58;;;;;;;5.97;5.37;;;19.50;99.90;;;;;;6249987;28;20239;-68
2022/09/04 01:50:06;;;;;;;5.93;5.43;;;19.40;99.90;;;;;;6250004;28;20228;-69
2022/09/04 01:53:13;;;;;;;4.97;4.47;;;19.40;99.90;;;;;;6249607;28;20308;-69
2022/09/04 01:56:25;;;;;;;5.90;5.40;;;19.30;99.90;;;;;;6249856;28;20242;-69
2022/09/04 01:59:38;;;;;;;5.07;4.67;;;19.30;99.90;;;;;;6249823;28;20243;-69
2022/09/04 02:02:54;;;;;;;5.40;4.97;;;19.20;99.90;;;;;;6249937;28;20240;-68
2022/09/04 02:06:05;;;;;;;5.27;4.90;;;19.10;99.90;;;;;;6249629;28;20303;-68
2022/09/04 02:09:23;;;;;;;5.57;5.17;;;19.10;99.90;;;;;;6250227;28;20200;-68
2022/09/04 02:12:33;;;;;;;5.70;5.20;;;19.00;99.90;;;;;;6250281;28;20221;-68
2022/09/04 02:15:48;;;;;;;5.33;4.23;;;18.90;99.90;;;;;;6249682;28;20229;-68
2022/09/04 02:18:59;;;;;;;5.07;4.67;;;19.00;99.90;;;;;;6249983;28;20228;-68
2022/09/04 02:22:11;;;;;;;5.00;4.70;;;18.90;99.90;;;;;;6249804;28;20582;-69
2022/09/04 02:25:27;;;;;;;5.40;5.00;;;18.90;99.90;;;;;;6249631;28;20250;-69
2022/09/04 02:28:39;;;;;;;5.17;4.87;;;18.90;99.90;;;;;;6249949;28;20239;-69
2022/09/04 02:31:55;;;;;;;5.93;5.33;;;18.90;99.90;;;;;;6249447;28;20228;-69
2022/09/04 02:35:06;;;;;;;5.57;5.17;;;18.90;99.90;;;;;;6249466;28;20699;-68
2022/09/04 02:38:21;;;;;;;5.40;5.00;;;18.90;99.90;;;;;;6249518;28;20239;-68
2022/09/04 02:41:36;;;;;;;5.73;5.33;;;18.90;99.90;;;;;;6249589;28;20764;-68
2022/09/04 02:44:47;;;;;;;5.70;5.03;;;18.80;99.90;;;;;;6248815;28;20564;-68
2022/09/04 02:47:57;;;;;;;6.67;5.30;;;18.80;99.90;;;;;;6249431;28;20235;-69
2022/09/04 02:51:16;;;;;;;5.20;4.80;;;18.80;99.90;;;;;;6249503;28;20224;-69
2022/09/04 02:54:35;;;;;;;5.83;5.43;;;18.70;99.90;;;;;;6248975;28;20240;-69
2022/09/04 02:57:53;;;;;;;5.20;4.80;;;18.60;99.90;;;;;;6247539;28;20246;-69
2022/09/04 03:01:04;;;;;;;5.27;4.77;;;18.60;99.90;;;;;;6252607;28;20570;-69
2022/09/04 03:04:15;;;;;;;5.53;5.13;;;18.70;99.90;;;;;;6253035;28;20877;-69
2022/09/04 03:07:25;;;;;;;5.40;5.00;;;18.80;99.90;;;;;;6253628;28;20236;-69
2022/09/04 03:10:31;;;;;;;5.50;5.00;;;18.80;99.90;;;;;;6253618;28;20243;-69
2022/09/04 03:13:42;;;;;;;5.13;4.73;;;18.80;99.90;;;;;;6253675;28;20224;-69
2022/09/04 03:16:54;;;;;;;4.60;4.20;;;18.80;99.90;;;;;;6253050;28;20708;-69
2022/09/04 03:20:04;;;;;;;4.90;4.50;;;18.80;99.90;;;;;;6253036;28;20711;-69
2022/09/04 03:23:15;;;;;;;5.07;4.77;;;18.70;99.90;;;;;;6253208;28;20232;-69
2022/09/04 03:26:22;;;;;;;4.90;4.60;;;18.70;99.90;;;;;;6252952;28;20247;-68
2022/09/04 03:29:35;;;;;;;5.93;5.43;;;18.70;99.90;;;;;;6253238;28;20228;-68
2022/09/04 03:32:50;;;;;;;5.53;5.10;;;18.70;99.90;;;;;;6252661;28;20230;-68
2022/09/04 03:36:03;;;;;;;5.83;5.40;;;18.70;99.90;;;;;;6252807;28;20229;-69
2022/09/04 03:39:16;;;;;;;5.93;5.53;;;18.80;99.90;;;;;;6252548;28;20193;-69
2022/09/04 03:42:28;;;;;;;6.07;5.57;;;18.70;99.90;;;;;;6252687;28;20235;-69
2022/09/04 03:45:39;;;;;;;6.33;5.63;;;18.70;99.90;;;;;;6252769;28;20243;-69
2022/09/04 03:48:55;;;;;;;6.37;5.87;;;18.70;99.90;;;;;;6253292;28;20224;-69
2022/09/04 03:52:05;;;;;;;7.57;5.50;;;18.60;99.90;;;;;;6252863;28;20228;-69
2022/09/04 03:55:27;;;;;;;5.80;5.40;;;18.60;99.90;;;;;;6252521;28;20740;-69
2022/09/04 03:58:40;;;;;;;8.30;5.47;;;18.50;99.90;;;;;;6252617;28;20587;-69
2022/09/04 04:01:54;;;;;;;5.37;4.90;;;18.50;99.90;;;;;;6252283;28;20676;-69
2022/09/04 04:05:24;;;;;;;4.97;4.57;;;18.40;99.90;;;;;;6252293;28;20475;-69
2022/09/04 04:08:56;;;;;;;9.43;5.83;;;18.40;99.90;;;;;;6249739;28;20554;-69
2022/09/04 04:12:17;;;;;;;5.63;5.23;;;18.30;99.90;;;;;;6251957;28;20239;-69
2022/09/04 04:15:32;;;;;;;4.87;4.50;;;18.20;99.90;;;;;;6252315;28;20243;-69
2022/09/04 04:18:54;;;;;;;5.67;5.17;;;18.20;99.90;;;;;;6252056;28;20795;-70
2022/09/04 04:22:11;;;;;;;5.57;5.10;;;18.20;99.90;;;;;;6252337;28;20234;-69
2022/09/04 04:25:41;;;;;;;5.50;5.10;;;18.20;99.90;;;;;;6251449;28;20250;-69
2022/09/04 04:29:10;;;;;;;5.50;4.77;;;18.10;99.90;;;;;;6251695;28;20237;-69
2022/09/04 04:32:46;;;;;;;5.57;4.90;;;18.00;99.90;;;;;;6247546;28;20236;-69
2022/09/04 04:35:57;;;;;;;5.90;5.30;;;18.10;99.90;;;;;;6237304;28;20813;-68
2022/09/04 04:39:21;;;;;;;6.13;5.63;;;18.00;99.90;;;;;;6251171;28;20454;-68
2022/09/04 04:42:40;;;;;;;5.10;4.80;;;18.00;99.90;;;;;;6251997;28;20271;-69
2022/09/04 04:45:52;;;;;;;6.20;5.67;;;17.90;99.90;;;;;;6244820;28;20479;-68
2022/09/04 04:49:37;;;;;;;6.50;6.00;;;17.90;99.90;;;;;;6235468;28;20481;-68
2022/09/04 04:52:50;;;;;;;5.67;5.27;;;17.90;99.90;;;;;;6251311;28;20482;-68
2022/09/04 04:55:59;;;;;;;4.90;4.60;;;17.90;99.90;;;;;;6235098;28;20472;-68
2022/09/04 04:59:19;;;;;;;5.77;5.30;;;17.90;99.90;;;;;;6244025;28;20467;-68
2022/09/04 05:02:31;;;;;;;6.20;5.40;;;17.90;99.90;;;;;;6250903;28;20228;-69
2022/09/04 05:05:50;;;;;;;5.77;5.27;;;17.90;99.90;;;;;;6229163;28;20480;-68
2022/09/04 05:09:01;;;;;;;7.13;5.40;;;17.90;99.90;;;;;;6250632;28;20275;-68
2022/09/04 05:12:10;;;;;;;5.83;5.30;;;17.90;99.90;;;;;;6227701;28;20197;-68
2022/09/04 05:15:23;;;;;;;5.03;4.63;;;17.90;99.90;;;;;;6250671;28;20810;-69
2022/09/04 05:18:31;;;;;;;5.40;4.93;;;17.90;99.90;;;;;;6246550;28;20225;-69
2022/09/04 05:21:39;;;;;;;5.07;4.73;;;17.90;99.90;;;;;;6231080;28;20677;-70
2022/09/04 05:24:51;;;;;;;5.00;4.70;;;18.10;99.90;;;;;;6250852;28;20251;-68
2022/09/04 05:28:07;;;;;;;5.57;5.07;;;18.10;99.90;;;;;;6242145;28;20239;-69
2022/09/04 05:31:23;;;;;;;4.53;4.10;;;18.10;99.90;;;;;;6236290;28;20232;-69
2022/09/04 05:34:33;;;;;;;4.20;3.90;;;18.20;99.90;;;;;;6250338;28;20545;-68
2022/09/04 05:37:46;;;;;;;4.83;4.43;;;18.20;99.90;;;;;;6227529;28;20234;-68
2022/09/04 05:41:03;;;;;;;4.60;3.73;;;18.20;99.90;;;;;;6241402;28;20264;-69
2022/09/04 05:44:21;;;;;;;4.27;3.60;;;18.20;99.90;;;;;;6250073;28;20244;-69
2022/09/04 05:47:41;;;;;;;5.80;4.07;;;18.30;99.90;;;;;;6229950;28;20252;-68
2022/09/04 05:51:11;;;;;;;3.70;3.40;;;18.40;99.90;;;;;;6248313;28;20689;-68
2022/09/04 05:54:41;;;;;;;3.73;3.40;;;18.40;99.90;;;;;;6248412;28;20235;-68
2022/09/04 05:58:05;;;;;;;3.23;3.03;;;18.50;99.90;;;;;;6235409;28;20683;-68
2022/09/04 06:01:24;;;;;;;3.73;3.43;;;18.60;99.90;;;;;;6235154;28;20695;-69
2022/09/04 06:04:50;;;;;;;3.60;3.40;;;18.80;99.90;;;;;;6249837;28;20679;-68
2022/09/04 06:08:00;;;;;;;3.40;3.20;;;19.00;99.90;;;;;;6233617;28;20229;-68
2022/09/04 06:11:29;;;;;;;4.90;3.23;;;19.20;99.90;;;;;;6242592;28;20228;-68
2022/09/04 06:15:16;;;;;;;3.07;2.87;;;19.80;99.90;;;;;;6249500;28;20561;-68
2022/09/04 06:19:03;;;;;;;2.67;2.47;;;20.50;99.90;;;;;;6225718;28;20233;-69
2022/09/04 06:22:57;;;;;;;3.27;2.80;;;20.80;99.90;;;;;;6221714;28;20239;-69
2022/09/04 06:26:17;;;;;;;2.90;2.70;;;21.20;99.90;;;;;;6247653;28;20232;-69
2022/09/04 06:29:46;;;;;;;3.63;3.17;;;22.90;99.90;;;;;;6249944;28;20233;-69
2022/09/04 06:33:16;;;;;;;2.63;2.43;;;24.60;99.30;;;;;;6254127;28;20239;-69
2022/09/04 06:36:41;;;;;;;2.80;2.13;;;26.10;96.00;;;;;;6254460;28;20227;-66
2022/09/04 06:40:11;;;;;;;3.17;2.70;;;27.70;92.00;;;;;;6250377;28;20228;-69
2022/09/04 06:43:26;;;;;;;2.60;2.40;;;29.20;83.90;;;;;;6254342;28;20565;-66
2022/09/04 06:46:38;;;;;;;2.63;2.43;;;30.20;77.90;;;;;;6254096;28;20236;-66
2022/09/04 06:50:08;;;;;;;2.60;2.40;;;31.30;70.10;;;;;;6254265;28;20696;-66
2022/09/04 06:53:26;;;;;;;2.45;2.25;;;31.80;63.80;;;;;;6253834;28;20579;-66
2022/09/04 06:56:54;;;;;;;2.33;2.13;;;31.90;60.10;;;;;;6253580;28;20237;-65
2022/09/04 07:00:04;;;;;;;4.97;2.38;;;32.20;58.60;;;;;;6227705;28;20219;-65
2022/09/04 07:03:43;;;;;;;2.88;2.38;;;32.50;57.00;;;;;;6225389;28;20193;-65
2022/09/04 07:07:01;;;;;;;2.38;2.17;;;32.90;55.50;;;;;;6234338;28;20240;-66
2022/09/04 07:10:09;;;;;;;3.10;2.08;;;33.10;54.10;;;;;;6254417;28;20232;-65
2022/09/04 07:13:37;;;;;;;2.40;2.20;;;33.30;53.50;;;;;;6254148;28;20239;-65
2022/09/04 07:16:45;;;;;;;2.17;2.08;;;34.20;50.80;;;;;;6252779;28;20667;-65
2022/09/04 07:20:08;;;;;;;1.90;1.80;;;35.30;49.10;;;;;;6252922;28;20238;-65
2022/09/04 07:23:23;;;;;;;2.20;2.00;;;36.60;46.10;;;;;;6252423;28;20239;-66
2022/09/04 07:26:36;;;;;;;2.55;1.80;;;37.50;43.60;;;;;;6251002;28;20220;-66
2022/09/04 07:29:47;;;;;;;1.73;1.63;;;38.30;41.90;;;;;;6252575;28;20224;-66
2022/09/04 07:32:56;;;;;;;1.77;1.67;;;39.20;39.30;;;;;;6252035;28;20546;-66
2022/09/04 07:36:06;;;;;;;2.17;1.77;;;38.90;38.70;;;;;;6252211;28;20208;-66
2022/09/04 07:39:19;;;;;;;2.08;1.88;;;39.00;38.80;;;;;;6247255;28;20204;-66
2022/09/04 07:42:30;;;;;;;1.85;1.75;;;39.90;37.10;;;;;;6249137;28;20235;-68
2022/09/04 07:45:47;;;;;;;1.77;1.67;;;39.80;36.30;;;;;;6246438;28;20259;-69
2022/09/04 07:48:56;;;;;;;1.58;1.45;;;39.30;37.20;;;;;;6251588;28;20224;-68
2022/09/04 07:52:10;;;;;;;1.80;1.70;;;39.60;36.00;;;;;;6251642;28;20226;-68
2022/09/04 07:55:21;;;;;;;1.65;1.55;;;39.00;36.20;;;;;;6252699;28;20354;-68
2022/09/04 07:58:53;;;;;;;2.10;1.98;;;38.90;36.30;;;;;;6252794;28;20227;-68
2022/09/04 08:02:13;;;;;;;2.10;1.90;;;38.30;37.00;;;;;;6251756;28;20253;-69
2022/09/04 08:05:23;;;;;;;2.10;1.80;;;38.20;36.90;;;;;;6252394;28;20228;-69
2022/09/04 08:08:52;;;;;;;2.17;1.70;;;38.00;36.90;;;;;;6252233;28;20246;-69
2022/09/04 08:12:22;;;;;;;2.42;1.92;;;39.50;35.80;;;;;;6250463;28;20231;-69
2022/09/04 08:15:37;;;;;;;1.77;1.65;;;40.50;34.10;;;;;;6249817;28;20238;-69
2022/09/04 08:19:03;;;;;;;1.70;1.60;;;42.10;32.40;;;;;;6250129;28;20684;-69
2022/09/04 08:22:12;;;;;;;1.48;1.38;;;43.20;30.70;;;;;;6251348;28;20228;-69
2022/09/04 08:25:27;;;;;;;1.52;1.40;;;44.20;28.90;;;;;;6249757;28;20232;-69
2022/09/04 08:28:55;;;;;;;1.60;1.50;;;45.10;28.00;;;;;;6249753;28;20235;-69
2022/09/04 08:32:14;;;;;;;1.98;1.85;;;45.70;27.20;;;;;;6250772;28;20275;-69
2022/09/04 08:35:24;;;;;;;1.67;1.48;;;46.70;27.00;;;;;;6251228;28;20240;-69
2022/09/04 08:38:40;;;;;;;1.60;1.50;;;47.20;26.00;;;;;;6251610;28;20257;-69
2022/09/04 08:42:21;;;;;;;1.58;1.48;;;48.90;24.30;;;;;;6251541;28;20230;-69
2022/09/04 08:45:53;;;;;;;1.42;1.33;;;49.90;23.10;;;;;;6250617;28;20327;-69
2022/09/04 08:49:27;;;;;;;1.50;1.40;;;51.40;22.10;;;;;;6239195;28;20307;-69
2022/09/04 08:52:57;;;;;;;1.60;1.50;;;52.60;21.30;;;;;;6230767;28;20224;-69
2022/09/04 08:56:26;;;;;;;1.75;1.50;;;52.50;20.90;;;;;;6243070;28;20224;-69
2022/09/04 09:00:06;;;;;;;1.45;1.35;;;53.00;20.50;;;;;;6249691;28;20224;-69
2022/09/04 09:03:35;;;;;;;1.40;1.30;;;53.50;19.80;;;;;;6250591;28;20222;-69
2022/09/04 09:07:12;;;;;;;1.60;1.50;;;53.10;19.90;;;;;;6241132;28;20232;-69
2022/09/04 09:10:37;;;;;;;1.73;1.63;;;53.80;19.50;;;;;;6235424;28;20219;-70
2022/09/04 09:14:17;;;;;;;1.70;1.60;;;53.70;19.30;;;;;;6244999;28;20224;-69
2022/09/04 09:17:37;;;;;;;1.85;1.75;;;52.70;19.20;;;;;;6229163;28;20235;-69
2022/09/04 09:20:52;;;;;;;1.75;1.65;;;51.50;20.20;;;;;;6243670;28;20322;-69
2022/09/04 09:24:29;;;;;;;1.70;1.60;;;52.50;19.80;;;;;;6223445;28;20231;-69
2022/09/04 09:28:23;;;;;;;1.40;1.30;;;52.80;19.20;;;;;;6249809;28;20238;-69
2022/09/04 09:32:06;;;;;;;1.70;1.60;;;52.90;18.80;;;;;;6250758;28;20238;-69
2022/09/04 09:35:40;;;;;;;1.70;1.60;;;52.70;19.20;;;;;;6231135;28;20268;-69
2022/09/04 09:39:21;;;;;;;5.55;2.10;;;52.80;19.40;;;;;;6227542;28;20238;-69
2022/09/04 09:43:03;;;;;;;2.50;1.70;;;53.60;19.10;;;;;;6225760;28;20321;-68
2022/09/04 09:46:37;;;;;;;1.58;1.48;;;53.70;19.20;;;;;;6233195;28;20220;-68
2022/09/04 09:50:08;;;;;;;1.88;1.77;;;52.30;19.60;;;;;;6241447;28;20227;-67
2022/09/04 09:53:43;;;;;;;1.52;1.42;;;49.50;21.10;;;;;;6244503;28;20233;-70
2022/09/04 09:57:25;;;;;;;1.63;1.52;;;45.70;23.40;;;;;;6205473;28;20314;-68
2022/09/04 10:00:45;;;;;;;2.20;2.10;;;43.60;25.00;;;;;;6249104;28;20228;-68
2022/09/04 10:04:27;;;;;;;2.30;2.20;;;42.30;26.20;;;;;;6246727;28;20769;-70
2022/09/04 10:08:09;;;;;;;2.20;2.00;;;40.60;27.90;;;;;;6227839;28;20965;-72
2022/09/04 10:11:53;;;;;;;2.28;2.08;;;38.80;30.20;;;;;;6245734;28;20653;-71
2022/09/04 10:15:24;;;;;;;2.30;2.10;;;38.00;31.40;;;;;;6228973;28;20319;-71
2022/09/04 10:19:10;;;;;;;3.28;2.90;;;37.00;32.90;;;;;;6225849;28;20237;-71
2022/09/04 10:22:51;;;;;;;2.72;2.45;;;35.40;35.10;;;;;;6236260;28;20256;-67
2022/09/04 10:26:25;;;;;;;3.35;3.05;;;34.70;36.40;;;;;;6249668;28;20238;-68
2022/09/04 10:29:50;;;;;;;4.07;3.78;;;33.90;38.30;;;;;;6228384;28;20673;-67
2022/09/04 10:33:17;;;;;;;3.13;2.92;;;32.70;40.90;;;;;;6248002;28;20239;-67
2022/09/04 10:36:30;;;;;;;5.38;3.05;;;31.60;42.90;;;;;;6226588;28;20793;-67
2022/09/04 10:43:28;;;;;;;3.00;2.70;;;31.10;44.60;;;;;;6233593;28;20287;-67
2022/09/04 10:46:38;;;;;;;3.38;3.17;;;31.00;44.80;;;;;;6247727;28;20250;-68
2022/09/04 10:49:58;;;;;;;2.70;2.50;;;31.00;45.60;;;;;;6233980;28;20233;-67
2022/09/04 10:53:35;;;;;;;3.90;3.60;;;31.30;45.20;;;;;;6241355;28;20228;-67
2022/09/04 10:56:53;;;;;;;2.90;2.70;;;31.30;45.30;;;;;;6249103;28;20228;-67
2022/09/04 11:00:05;;;;;;;2.90;2.70;;;31.40;45.10;;;;;;6224891;28;20233;-67
2022/09/04 11:03:37;;;;;;;2.85;2.65;;;31.60;44.30;;;;;;6248883;28;20228;-67
2022/09/04 11:07:09;;;;;;;3.17;2.97;;;30.80;45.50;;;;;;6249400;28;20228;-67
2022/09/04 11:10:24;;;;;;;2.80;2.60;;;30.30;47.00;;;;;;6249344;28;20234;-67
2022/09/04 11:14:02;;;;;;;3.00;2.80;;;30.50;46.90;;;;;;6249263;28;20232;-67
2022/09/04 11:17:39;;;;;;;2.80;2.60;;;31.10;45.80;;;;;;6248686;28;20240;-67
2022/09/04 11:21:28;;;;;;;2.92;2.67;;;31.60;44.70;;;;;;6228592;28;20223;-67
2022/09/04 11:25:04;;;;;;;3.22;2.92;;;31.40;45.00;;;;;;6253382;28;20228;-67
2022/09/04 11:28:50;;;;;;;2.30;2.10;;;31.60;45.00;;;;;;6253623;28;20236;-67
2022/09/04 11:32:16;;;;;;;2.35;2.15;;;31.90;44.30;;;;;;6253581;28;20246;-67
2022/09/04 11:35:54;;;;;;;2.60;2.40;;;31.60;44.00;;;;;;6233817;28;20247;-67
2022/09/04 11:39:30;;;;;;;2.90;2.70;;;31.50;44.00;;;;;;6249936;28;20235;-68
2022/09/04 11:43:02;;;;;;;2.65;2.28;;;31.40;44.40;;;;;;6251600;28;20239;-68
2022/09/04 11:46:25;;;;;;;2.92;2.72;;;31.80;44.10;;;;;;6253149;28;20299;-67
2022/09/04 11:50:03;;;;;;;2.67;2.47;;;32.30;44.00;;;;;;6240906;28;20351;-67
2022/09/04 11:53:43;;;;;;;2.88;2.67;;;32.10;42.90;;;;;;6245489;28;20528;-67
2022/09/04 11:57:15;;;;;;;2.28;2.08;;;32.00;43.90;;;;;;6205915;28;20243;-67
2022/09/04 12:00:19;;;;;;;2.38;2.20;;;31.90;43.70;;;;;;6248022;28;20560;-67
2022/09/04 12:03:57;;;;;;;2.58;2.33;;;31.90;44.00;;;;;;6252264;28;20228;-67
2022/09/04 12:07:29;;;;;;;3.00;2.40;;;31.00;45.00;;;;;;6252080;28;20232;-68
2022/09/04 12:11:05;;;;;;;3.10;2.90;;;30.20;46.50;;;;;;6238266;28;20240;-67
2022/09/04 12:14:24;;;;;;;2.38;2.17;;;29.90;47.50;;;;;;6245447;28;20239;-67
2022/09/04 12:17:46;;;;;;;2.10;1.90;;;30.20;47.10;;;;;;6252019;28;20232;-67
2022/09/04 12:21:22;;;;;;;2.40;2.30;;;30.10;46.50;;;;;;6229171;28;20229;-67
2022/09/04 12:24:58;;;;;;;2.55;2.35;;;30.10;47.10;;;;;;6226486;28;20247;-67
2022/09/04 12:28:39;;;;;;;2.50;2.35;;;30.20;46.80;;;;;;6251399;28;20236;-67
2022/09/04 12:32:25;;;;;;;2.63;2.42;;;30.50;47.20;;;;;;6237890;28;20228;-67
2022/09/04 12:36:05;;;;;;;3.30;3.03;;;30.10;49.00;;;;;;6218162;28;20279;-67
2022/09/04 12:39:42;;;;;;;2.80;2.60;;;29.10;53.80;;;;;;6228658;28;20231;-67
2022/09/04 12:42:56;;;;;;;3.80;2.93;;;28.30;53.80;;;;;;6251592;28;20695;-67
2022/09/04 12:46:11;;;;;;;4.20;2.97;;;27.10;57.80;;;;;;6243632;28;20247;-67
2022/09/04 12:49:36;;;;;;;3.80;3.50;;;26.90;63.80;;;;;;6237303;28;20236;-68
2022/09/04 12:52:51;;;;;;;3.10;2.57;;;26.60;64.40;;;;;;6251455;28;20236;-67
2022/09/04 12:56:04;;;;;;;2.87;2.67;;;26.10;66.20;;;;;;6235708;28;20243;-67
2022/09/04 12:59:22;;;;;;;2.70;2.43;;;25.60;68.20;;;;;;6244152;28;20238;-68
2022/09/04 13:02:34;;;;;;;2.60;2.40;;;25.40;70.90;;;;;;6251171;28;20232;-67
2022/09/04 13:05:51;;;;;;;4.20;2.80;;;25.00;74.20;;;;;;6229458;28;20615;-67
2022/09/04 13:09:10;;;;;;;3.30;3.00;;;24.90;76.20;;;;;;6245627;28;20276;-66
2022/09/04 13:12:24;;;;;;;3.13;2.83;;;24.90;79.70;;;;;;6250949;28;20221;-65
2022/09/04 13:15:34;;;;;;;5.20;2.80;;;24.80;80.80;;;;;;6247032;28;20243;-65
2022/09/04 13:18:59;;;;;;;3.33;2.73;;;24.80;83.50;;;;;;6231395;28;20231;-65
2022/09/04 13:22:21;;;;;;;3.57;3.30;;;24.80;84.10;;;;;;6250598;28;20232;-65
2022/09/04 13:25:38;;;;;;;2.83;2.60;;;25.00;87.00;;;;;;6239563;28;20569;-65
2022/09/04 13:28:52;;;;;;;2.87;2.60;;;24.80;85.40;;;;;;6241438;28;20686;-65
2022/09/04 13:32:27;;;;;;;2.23;1.70;;;24.90;85.80;;;;;;6251145;28;20228;-65
2022/09/04 13:35:48;;;;;;;1.70;1.60;;;25.10;85.20;;;;;;6230076;28;20232;-65
2022/09/04 13:39:25;;;;;;;1.83;1.63;;;25.20;84.30;;;;;;6249259;28;20655;-66
2022/09/04 13:43:19;;;;;;;2.30;1.70;;;25.40;82.90;;;;;;6229684;28;20239;-65
2022/09/04 13:46:29;;;;;;;2.47;2.27;;;25.60;85.00;;;;;;6175402;28;20241;-68
2022/09/04 13:49:37;;;;;;;2.87;2.40;;;26.00;83.30;;;;;;6250109;28;20232;-68
2022/09/04 13:52:45;;;;;;;4.20;2.57;;;26.30;83.20;;;;;;6250709;28;20682;-68
2022/09/04 13:55:53;;;;;;;2.60;2.40;;;26.50;81.70;;;;;;6250604;28;20242;-67
2022/09/04 13:59:07;;;;;;;3.20;2.90;;;26.70;82.00;;;;;;6250691;28;20224;-69
2022/09/04 14:02:14;;;;;;;3.27;2.97;;;26.70;80.40;;;;;;6250197;28;20660;-68
2022/09/04 14:05:21;;;;;;;3.20;2.50;;;26.60;81.20;;;;;;6250287;28;20660;-67
2022/09/04 14:08:30;;;;;;;2.60;2.40;;;26.50;80.10;;;;;;6249735;28;20224;-67
2022/09/04 14:11:59;;;;;;;2.07;1.97;;;26.30;78.40;;;;;;6241056;28;20239;-67
2022/09/04 14:15:38;;;;;;;2.10;1.90;;;26.10;75.90;;;;;;6247241;28;20243;-68
2022/09/04 14:19:11;;;;;;;1.40;1.30;;;26.20;77.10;;;;;;6249074;28;20224;-68
2022/09/04 14:22:30;;;;;;;2.23;1.97;;;26.30;73.20;;;;;;6246747;28;20223;-68
2022/09/04 14:25:43;;;;;;;5.07;2.50;;;26.30;75.70;;;;;;6249651;28;20326;-68
2022/09/04 14:28:55;;;;;;;2.93;2.73;;;26.20;79.60;;;;;;6249304;28;20228;-68
2022/09/04 14:32:15;;;;;;;3.33;3.03;;;25.80;81.60;;;;;;6249670;28;20228;-67
2022/09/04 14:35:29;;;;;;;3.70;3.30;;;24.70;87.00;;;;;;6249417;28;20236;-67
2022/09/04 14:38:52;;;;;;;4.23;3.60;;;24.30;89.80;;;;;;6249557;28;20297;-65
2022/09/04 14:42:27;;;;;;;4.10;3.80;;;24.50;90.00;;;;;;6248566;28;20232;-66
2022/09/04 14:45:50;;;;;;;5.30;4.80;;;24.20;90.40;;;;;;6222380;28;20597;-67
2022/09/04 14:49:02;;;;;;;3.70;3.40;;;24.40;90.60;;;;;;6246261;28;20251;-67
2022/09/04 14:52:18;;;;;;;2.60;2.40;;;24.40;90.40;;;;;;6237541;28;20237;-66
2022/09/04 14:55:26;;;;;;;3.43;3.20;;;24.20;91.00;;;;;;6250167;28;20592;-67
2022/09/04 14:58:34;;;;;;;4.30;3.90;;;24.70;90.70;;;;;;6237264;28;20609;-66
2022/09/04 15:01:55;;;;;;;3.70;3.40;;;24.90;90.00;;;;;;6241390;28;20224;-67
2022/09/04 15:05:01;;;;;;;4.17;3.87;;;25.10;88.80;;;;;;6253594;28;20239;-67
2022/09/04 15:08:07;;;;;;;4.00;3.60;;;25.00;90.20;;;;;;6234341;28;20227;-67
2022/09/04 15:11:26;;;;;;;3.53;3.33;;;24.90;91.80;;;;;;6246308;28;20220;-67
2022/09/04 15:14:38;;;;;;;7.27;3.73;;;24.90;92.30;;;;;;6244551;28;20308;-67
2022/09/04 15:17:50;;;;;;;4.50;4.20;;;25.10;92.10;;;;;;6231648;28;20228;-67
2022/09/04 15:20:59;;;;;;;4.73;4.43;;;25.00;92.00;;;;;;6252385;28;20326;-66
2022/09/04 15:24:18;;;;;;;5.17;4.77;;;25.00;92.50;;;;;;6253814;28;20219;-65
2022/09/04 15:27:39;;;;;;;4.97;4.57;;;24.90;92.60;;;;;;6233964;28;20279;-65
2022/09/04 15:30:45;;;;;;;4.60;4.30;;;24.80;92.60;;;;;;6231845;28;20247;-66
2022/09/04 15:33:49;;;;;;;4.63;4.23;;;24.60;93.60;;;;;;6253435;28;20228;-66
2022/09/04 15:36:53;;;;;;;5.40;5.00;;;24.70;93.30;;;;;;6246138;28;20236;-65
2022/09/04 15:40:09;;;;;;;5.17;4.77;;;24.80;93.00;;;;;;6235682;28;20234;-66
2022/09/04 15:43:22;;;;;;;6.03;5.33;;;24.90;93.40;;;;;;6253285;28;20661;-66
2022/09/04 15:46:36;;;;;;;5.40;4.90;;;24.90;92.70;;;;;;6240604;28;20236;-66
2022/09/04 15:49:45;;;;;;;5.53;5.13;;;25.00;92.90;;;;;;6236729;28;20232;-66
2022/09/04 15:52:57;;;;;;;5.20;4.90;;;25.20;92.90;;;;;;6247486;28;20216;-66
2022/09/04 15:56:08;;;;;;;4.93;4.50;;;25.40;92.70;;;;;;6236651;28;20239;-66
2022/09/04 15:59:17;;;;;;;5.07;4.77;;;25.50;92.70;;;;;;6244835;28;20224;-66
2022/09/04 16:02:35;;;;;;;5.27;4.87;;;25.50;93.00;;;;;;6228069;28;20259;-66
2022/09/04 16:05:44;;;;;;;4.50;4.20;;;25.50;93.00;;;;;;6227187;28;20229;-66
2022/09/04 16:08:53;;;;;;;5.27;4.87;;;25.50;93.10;;;;;;6227968;28;20235;-66
2022/09/04 16:12:04;;;;;;;5.37;4.87;;;25.40;93.20;;;;;;6227946;28;20233;-66
2022/09/04 16:15:12;;;;;;;5.83;5.43;;;25.40;92.70;;;;;;6203823;28;20245;-66
2022/09/04 16:18:22;;;;;;;5.37;5.00;;;25.40;93.20;;;;;;6220986;28;20209;-67
2022/09/04 16:21:40;;;;;;;4.90;4.50;;;25.40;93.40;;;;;;6206430;28;20232;-67
2022/09/04 16:24:45;;;;;;;5.57;5.17;;;25.20;92.90;;;;;;6227615;28;20236;-67
2022/09/04 16:27:54;;;;;;;5.90;5.40;;;25.10;92.10;;;;;;6227874;28;20229;-67
2022/09/04 16:31:01;;;;;;;5.77;5.37;;;24.90;92.60;;;;;;6227543;28;20232;-66
2022/09/04 16:34:15;;;;;;;5.67;5.17;;;24.80;93.30;;;;;;6245283;28;20220;-66
2022/09/04 16:37:27;;;;;;;5.50;5.00;;;24.60;94.00;;;;;;6246267;28;20239;-67
2022/09/04 16:40:34;;;;;;;6.30;5.07;;;24.50;94.80;;;;;;6250967;28;20683;-67
2022/09/04 16:43:39;;;;;;;5.53;5.10;;;24.30;95.50;;;;;;6250888;28;20216;-67
2022/09/04 16:47:01;;;;;;;7.20;5.07;;;24.20;95.50;;;;;;6251136;28;20621;-66
2022/09/04 16:50:13;;;;;;;4.80;4.50;;;24.00;95.80;;;;;;6250868;28;20236;-66
2022/09/04 16:53:22;;;;;;;5.50;5.07;;;23.90;96.00;;;;;;6215184;28;20224;-66
2022/09/04 16:56:32;;;;;;;5.20;4.73;;;23.80;96.50;;;;;;6240685;28;20224;-66
2022/09/04 16:59:43;;;;;;;4.67;4.27;;;23.70;96.90;;;;;;6228830;28;20728;-66
2022/09/04 17:02:54;;;;;;;4.70;4.30;;;23.60;97.50;;;;;;6234779;28;20307;-66
2022/09/04 17:06:05;;;;;;;5.13;4.57;;;23.50;97.50;;;;;;6249938;28;20775;-66
2022/09/04 17:09:15;;;;;;;5.03;4.63;;;23.30;97.70;;;;;;6250312;28;20219;-66
2022/09/04 17:12:51;;;;;;;4.53;4.30;;;23.20;98.50;;;;;;6242151;28;20234;-66
2022/09/04 17:16:01;;;;;;;5.10;4.70;;;23.10;99.30;;;;;;6237464;28;20229;-66
2022/09/04 17:19:12;;;;;;;5.50;5.00;;;23.00;99.40;;;;;;6235855;28;20232;-66
2022/09/04 17:22:33;;;;;;;4.53;4.00;;;23.00;99.90;;;;;;6241532;28;20243;-67